Terminal Aerodrome Forecast
Issued by NWS Knoxville/Tri Cities, TN

Home | Current Version | Previous Version | Text Only | Print | Product List | Glossary On
Versions: 1 2 3 4 5 6 7 8 9 10 11 12 13 14 15 16 17 18 19 20 21 22 23 24 25 26 27 28 29 30
000
FTUS44 KMRX 012325
TAFTRI
TAF
KTRI 012325Z 0200/0224 07005KT P6SM VCSH SCT035 SCT080
     FM020100 00000KT P6SM SCT040 SCT080
     FM020500 00000KT 4SM BR SKC
     FM020700 00000KT 2SM BR SCT003
     FM020900 00000KT 1/2SM FG BKN002
     FM021230 00000KT 1SM BR BKN005
     FM021300 00000KT 3SM BR BKN010
     FM021400 VRB04KT P6SM SCT035 SCT150=

USA.gov is the U.S. government's official web portal to all federal, state and local government web resources and services.